createdAt,value
2018-04-24T00:00:48.132Z,3.70
2018-04-24T00:03:14.720Z,4.30
2018-04-24T00:05:41.304Z,4.13
2018-04-24T00:08:07.909Z,4.30
2018-04-24T00:10:34.480Z,4.17
2018-04-24T00:13:01.100Z,4.10
2018-04-24T00:15:27.685Z,3.60
2018-04-24T00:17:54.263Z,3.80
2018-04-24T00:20:20.858Z,4.20
2018-04-24T00:22:47.432Z,4.00
2018-04-24T00:25:14.299Z,3.93
2018-04-24T00:27:40.924Z,3.80
2018-04-24T00:30:07.481Z,3.40
2018-04-24T00:32:34.076Z,3.60
2018-04-24T00:35:00.652Z,3.70
2018-04-24T00:37:27.244Z,3.37
2018-04-24T00:39:53.824Z,3.40
2018-04-24T00:42:20.403Z,3.67
2018-04-24T00:44:46.995Z,3.37
2018-04-24T00:47:13.572Z,3.00
2018-04-24T00:49:40.148Z,3.27
2018-04-24T00:52:06.739Z,3.37
2018-04-24T00:54:33.316Z,3.07
2018-04-24T00:56:59.895Z,3.43
2018-04-24T00:59:26.479Z,3.20
2018-04-24T01:01:53.075Z,3.30
2018-04-24T01:04:19.652Z,3.13
2018-04-24T01:06:46.233Z,2.73
2018-04-24T01:09:12.823Z,3.03
2018-04-24T01:11:39.404Z,2.87
2018-04-24T01:14:06.287Z,3.23
2018-04-24T01:16:32.865Z,2.77
2018-04-24T01:18:59.449Z,3.03
2018-04-24T01:21:26.042Z,2.90
2018-04-24T01:23:52.644Z,2.80
2018-04-24T01:26:19.224Z,2.90
2018-04-24T01:28:45.803Z,2.50
2018-04-24T01:31:12.381Z,2.80
2018-04-24T01:33:38.980Z,2.40
2018-04-24T01:36:05.556Z,3.13
2018-04-24T01:38:32.133Z,3.03
2018-04-24T01:40:58.733Z,3.17
2018-04-24T01:43:25.327Z,3.33
2018-04-24T01:45:51.926Z,2.90
2018-04-24T01:48:18.785Z,2.83
2018-04-24T01:50:45.366Z,2.40
2018-04-24T01:53:11.948Z,2.90
2018-04-24T01:55:38.548Z,2.70
2018-04-24T01:58:05.123Z,2.30
2018-04-24T02:00:31.705Z,2.53
2018-04-24T02:02:58.373Z,2.70
2018-04-24T02:05:24.966Z,2.60
2018-04-24T02:07:51.536Z,3.13
2018-04-24T02:10:18.645Z,2.70
2018-04-24T02:12:45.204Z,2.80
2018-04-24T02:15:11.782Z,3.07
2018-04-24T02:17:38.392Z,2.70
2018-04-24T02:20:04.968Z,2.53
2018-04-24T02:22:31.555Z,2.80
2018-04-24T02:24:58.205Z,2.60
2018-04-24T02:27:24.740Z,3.13
2018-04-24T02:29:51.336Z,2.60
2018-04-24T02:32:17.952Z,2.43
2018-04-24T02:34:44.536Z,2.50
2018-04-24T02:37:11.116Z,2.60
2018-04-24T02:39:37.709Z,2.60
2018-04-24T02:42:04.286Z,2.50
2018-04-24T02:44:30.863Z,2.70
2018-04-24T02:46:57.455Z,2.67
2018-04-24T02:49:24.037Z,2.20
2018-04-24T02:51:50.612Z,2.70
2018-04-24T02:54:17.204Z,2.70
2018-04-24T02:56:43.784Z,2.23
2018-04-24T02:59:10.367Z,2.53
2018-04-24T03:01:36.957Z,2.20
2018-04-24T03:04:03.534Z,2.10
2018-04-24T03:06:30.128Z,2.50
2018-04-24T03:08:56.707Z,2.43
2018-04-24T03:11:23.289Z,2.47
2018-04-24T03:13:49.880Z,2.67
2018-04-24T03:16:16.462Z,2.90
2018-04-24T03:18:43.055Z,2.70
2018-04-24T03:21:09.641Z,2.50
2018-04-24T03:23:36.216Z,2.67
2018-04-24T03:26:02.820Z,2.70
2018-04-24T03:28:29.400Z,2.57
2018-04-24T03:30:55.991Z,2.80
2018-04-24T03:33:22.568Z,2.50
2018-04-24T03:35:49.143Z,2.60
2018-04-24T03:38:15.747Z,2.70
2018-04-24T03:40:42.347Z,2.80
2018-04-24T03:43:08.957Z,2.53
2018-04-24T03:45:35.532Z,2.57
2018-04-24T03:48:02.108Z,2.90
2018-04-24T03:50:28.695Z,2.47
2018-04-24T03:52:55.280Z,3.50
2018-04-24T03:55:21.871Z,3.20
2018-04-24T03:57:48.467Z,2.77
2018-04-24T04:00:15.044Z,3.13
2018-04-24T04:02:41.637Z,2.90
2018-04-24T04:05:08.211Z,2.83
2018-04-24T04:07:34.857Z,3.03
2018-04-24T04:10:01.377Z,2.80
2018-04-24T04:12:27.957Z,3.13
2018-04-24T04:14:54.548Z,2.93
2018-04-24T04:17:26.899Z,3.23
2018-04-24T04:19:59.227Z,3.33
2018-04-24T04:22:31.818Z,3.33
2018-04-24T04:24:58.324Z,3.60
2018-04-24T04:27:24.907Z,3.10
2018-04-24T04:29:51.505Z,3.10
2018-04-24T04:32:18.088Z,3.30
2018-04-24T04:34:44.663Z,3.47
2018-04-24T04:37:11.253Z,3.50
2018-04-24T04:39:37.835Z,3.40
2018-04-24T04:42:04.787Z,3.30
2018-04-24T04:44:31.365Z,3.40
2018-04-24T04:46:57.948Z,3.20
2018-04-24T04:49:24.527Z,3.27
2018-04-24T04:51:51.114Z,3.17
2018-04-24T04:54:17.691Z,3.10
2018-04-24T04:56:44.275Z,3.20
2018-04-24T04:59:10.854Z,3.53
2018-04-24T05:01:37.443Z,3.70
2018-04-24T05:04:04.027Z,4.23
2018-04-24T05:06:30.619Z,4.67
2018-04-24T05:08:57.201Z,4.37
2018-04-24T05:11:23.789Z,4.50
2018-04-24T05:13:50.374Z,3.90
2018-04-24T05:16:17.947Z,3.37
2018-04-24T05:18:44.544Z,3.70
2018-04-24T05:21:11.162Z,3.80
2018-04-24T05:23:37.836Z,3.70
2018-04-24T05:26:05.505Z,3.30
2018-04-24T05:28:32.138Z,3.73
2018-04-24T05:30:58.747Z,3.70
2018-04-24T05:33:25.367Z,3.47
2018-04-24T05:35:53.884Z,3.00
2018-04-24T05:38:20.573Z,3.33
2018-04-24T05:40:47.195Z,3.50
2018-04-24T05:43:14.048Z,4.10
2018-04-24T05:45:40.623Z,3.87
2018-04-24T05:48:07.207Z,3.90
2018-04-24T05:50:33.823Z,3.67
2018-04-24T05:53:00.453Z,3.37
2018-04-24T05:55:27.026Z,3.90
2018-04-24T05:57:53.631Z,3.30
2018-04-24T06:00:20.183Z,3.60
2018-04-24T06:02:46.777Z,3.97
2018-04-24T06:05:13.352Z,3.53
2018-04-24T06:07:39.937Z,3.90
2018-04-24T06:10:06.524Z,4.70
2018-04-24T06:12:33.108Z,4.73
2018-04-24T06:14:59.751Z,4.17
2018-04-24T06:17:26.288Z,5.23
2018-04-24T06:19:52.885Z,4.10
2018-04-24T06:22:19.452Z,4.73
2018-04-24T06:24:46.040Z,4.90
2018-04-24T06:27:12.666Z,4.33
2018-04-24T06:29:39.257Z,4.80
2018-04-24T06:32:05.863Z,3.97
2018-04-24T06:34:32.445Z,4.07
2018-04-24T06:36:59.024Z,4.50
2018-04-24T06:39:25.613Z,4.60
2018-04-24T06:41:52.208Z,3.60
2018-04-24T06:44:18.839Z,3.73
2018-04-24T06:46:45.396Z,4.17
2018-04-24T06:49:11.978Z,3.60
2018-04-24T06:51:38.568Z,3.50
2018-04-24T06:54:05.153Z,3.33
2018-04-24T06:56:31.731Z,3.50
2018-04-24T06:58:58.316Z,3.40
2018-04-24T07:01:24.946Z,3.37
2018-04-24T07:03:51.521Z,2.87
2018-04-24T07:06:18.137Z,3.07
2018-04-24T07:08:44.684Z,3.37
2018-04-24T07:11:11.262Z,2.97
2018-04-24T07:13:37.848Z,3.53
2018-04-24T07:16:04.424Z,3.83
2018-04-24T07:18:31.028Z,3.43
2018-04-24T07:20:57.604Z,3.00
2018-04-24T07:23:24.180Z,3.33
2018-04-24T07:25:50.773Z,3.30
2018-04-24T07:28:17.353Z,3.20
2018-04-24T07:30:43.942Z,2.90
2018-04-24T07:33:10.519Z,3.33
2018-04-24T07:35:37.116Z,2.80
2018-04-24T07:38:03.804Z,2.93
2018-04-24T07:40:30.389Z,3.20
2018-04-24T07:42:57.003Z,2.70
2018-04-24T07:45:23.567Z,3.17
2018-04-24T07:47:50.156Z,3.10
2018-04-24T07:50:16.769Z,3.40
2018-04-24T07:52:43.384Z,3.00
2018-04-24T07:55:09.981Z,3.07
2018-04-24T07:57:36.574Z,3.20
2018-04-24T08:00:03.162Z,2.87
2018-04-24T08:02:29.736Z,3.13
2018-04-24T08:04:56.319Z,3.13
2018-04-24T08:07:22.907Z,3.27
2018-04-24T08:09:49.519Z,3.20
2018-04-24T08:12:16.096Z,3.03
2018-04-24T08:14:42.676Z,3.73
2018-04-24T08:17:09.262Z,3.70
2018-04-24T08:19:35.839Z,3.63
2018-04-24T08:22:02.425Z,3.40
2018-04-24T08:24:29.009Z,3.57
2018-04-24T08:26:55.600Z,2.90
2018-04-24T08:29:22.176Z,3.20
2018-04-24T08:31:48.758Z,2.70
2018-04-24T08:34:15.356Z,2.50
2018-04-24T08:36:41.948Z,3.07
2018-04-24T08:39:08.547Z,2.20
2018-04-24T08:41:35.120Z,3.07
2018-04-24T08:44:01.712Z,2.77
2018-04-24T08:46:28.294Z,2.53
2018-04-24T08:48:54.956Z,2.40
2018-04-24T08:51:21.555Z,2.37
2018-04-24T08:53:48.140Z,2.00
2018-04-24T08:56:14.731Z,2.10
2018-04-24T08:58:41.312Z,2.03
2018-04-24T09:01:07.924Z,2.30
2018-04-24T09:03:34.524Z,2.23
2018-04-24T09:06:01.187Z,3.00
2018-04-24T09:08:27.857Z,1.90
2018-04-24T09:10:54.371Z,2.10
2018-04-24T09:13:20.951Z,2.23
2018-04-24T09:15:47.567Z,2.20
2018-04-24T09:18:14.472Z,3.00
2018-04-24T09:20:41.047Z,2.20
2018-04-24T09:23:07.631Z,2.30
2018-04-24T09:25:34.248Z,2.13
2018-04-24T09:28:00.827Z,2.07
2018-04-24T09:30:27.471Z,2.00
2018-04-24T09:32:54.068Z,1.93
2018-04-24T09:35:26.368Z,1.93
2018-04-24T09:37:52.948Z,2.20
2018-04-24T09:40:19.525Z,1.93
2018-04-24T09:42:46.120Z,2.80
2018-04-24T09:45:12.701Z,2.30
2018-04-24T09:47:39.287Z,2.40
2018-04-24T09:50:05.872Z,2.63
2018-04-24T09:52:32.464Z,2.63
2018-04-24T09:54:59.048Z,2.83
2018-04-24T09:57:25.624Z,3.10
2018-04-24T09:59:52.212Z,2.73
2018-04-24T10:02:18.869Z,2.70
2018-04-24T10:04:45.393Z,2.90
2018-04-24T10:07:11.964Z,3.50
2018-04-24T10:09:38.552Z,2.90
2018-04-24T10:12:05.141Z,2.80
2018-04-24T10:14:31.728Z,2.70
2018-04-24T10:16:58.368Z,2.63
2018-04-24T10:19:24.991Z,3.00
2018-04-24T10:21:51.568Z,2.90
2018-04-24T10:24:18.172Z,3.10
2018-04-24T10:26:44.752Z,2.70
2018-04-24T10:29:11.335Z,2.67
2018-04-24T10:31:37.915Z,2.70
2018-04-24T10:34:05.012Z,2.40
2018-04-24T10:36:31.761Z,2.37
2018-04-24T10:38:58.331Z,2.73
2018-04-24T10:41:24.917Z,2.57
2018-04-24T10:43:51.501Z,2.60
2018-04-24T10:46:18.112Z,2.70
2018-04-24T10:48:44.680Z,3.13
2018-04-24T10:51:11.274Z,2.73
2018-04-24T10:53:37.851Z,2.63
2018-04-24T10:56:04.501Z,2.87
2018-04-24T10:58:31.044Z,3.20
2018-04-24T11:00:57.640Z,2.90
2018-04-24T11:03:24.235Z,2.97
2018-04-24T11:05:50.820Z,3.40
2018-04-24T11:08:17.415Z,5.53
2018-04-24T11:10:44.019Z,3.40
2018-04-24T11:13:10.599Z,3.80
2018-04-24T11:15:37.249Z,3.40
2018-04-24T11:18:03.832Z,3.83
2018-04-24T11:20:30.416Z,3.60
2018-04-24T11:22:57.008Z,4.63
2018-04-24T11:25:23.597Z,18.13
2018-04-24T11:27:50.259Z,14.80
2018-04-24T11:30:16.856Z,4.20
2018-04-24T11:32:43.427Z,4.20
2018-04-24T11:35:10.016Z,4.70
2018-04-24T11:37:36.598Z,3.50
2018-04-24T11:40:03.185Z,3.27
2018-04-24T11:42:29.907Z,3.03
2018-04-24T11:44:56.467Z,3.20
2018-04-24T11:47:23.054Z,3.30
2018-04-24T11:49:49.720Z,3.40
2018-04-24T11:52:16.301Z,3.40
2018-04-24T11:54:43.806Z,2.83
2018-04-24T11:57:10.457Z,3.47
2018-04-24T11:59:36.981Z,3.27
2018-04-24T12:02:03.568Z,3.10
2018-04-24T12:04:30.143Z,3.20
2018-04-24T12:06:56.731Z,3.20
2018-04-24T12:09:23.315Z,3.80
2018-04-24T12:11:49.891Z,3.30
2018-04-24T12:14:16.479Z,3.47
2018-04-24T12:16:43.071Z,3.03
2018-04-24T12:19:09.666Z,3.17
2018-04-24T12:21:36.247Z,3.10
2018-04-24T12:24:02.864Z,3.20
2018-04-24T12:26:29.437Z,3.00
2018-04-24T12:28:56.020Z,3.27
2018-04-24T12:31:22.630Z,3.03
2018-04-24T12:33:49.216Z,3.33
2018-04-24T12:36:15.800Z,3.13
2018-04-24T12:38:42.435Z,3.10
2018-04-24T12:41:08.998Z,3.40
2018-04-24T12:43:35.573Z,3.37
2018-04-24T12:46:02.176Z,3.03
2018-04-24T12:48:28.762Z,3.30
2018-04-24T12:50:55.340Z,3.67
2018-04-24T12:53:21.927Z,3.97
2018-04-24T12:55:48.527Z,3.73
2018-04-24T12:58:15.116Z,3.70
2018-04-24T13:00:41.707Z,3.80
2018-04-24T13:03:08.293Z,4.60
2018-04-24T13:05:34.881Z,3.73
2018-04-24T13:08:01.464Z,3.90
2018-04-24T13:10:28.116Z,3.80
2018-04-24T13:12:54.647Z,3.80
2018-04-24T13:15:21.240Z,4.40
2018-04-24T13:17:47.823Z,3.77
2018-04-24T13:20:14.400Z,3.40
2018-04-24T13:22:40.993Z,4.00
2018-04-24T13:25:07.580Z,3.70
2018-04-24T13:27:34.159Z,3.20
2018-04-24T13:30:00.737Z,3.90
2018-04-24T13:32:27.334Z,3.90
2018-04-24T13:34:53.912Z,3.70
2018-04-24T13:37:20.515Z,3.80
2018-04-24T13:39:47.157Z,4.23
2018-04-24T13:42:13.746Z,4.93
2018-04-24T13:44:40.289Z,4.73
2018-04-24T13:47:06.860Z,5.00
2018-04-24T13:49:33.476Z,5.00
2018-04-24T13:52:00.048Z,4.87
2018-04-24T13:54:26.627Z,6.23
2018-04-24T13:56:53.212Z,5.17
2018-04-24T13:59:19.805Z,7.40
2018-04-24T14:01:46.388Z,6.10
2018-04-24T14:04:13.030Z,5.57
2018-04-24T14:06:39.587Z,5.83
2018-04-24T14:09:06.164Z,6.40
2018-04-24T14:11:32.779Z,6.90
2018-04-24T14:13:59.354Z,5.93
2018-04-24T14:16:25.940Z,6.70
2018-04-24T14:18:52.524Z,6.73
2018-04-24T14:21:19.100Z,6.10
2018-04-24T14:23:45.687Z,6.00
2018-04-24T14:26:12.278Z,6.10
2018-04-24T14:28:38.871Z,5.10
2018-04-24T14:31:05.454Z,6.30
2018-04-24T14:33:32.040Z,7.30
2018-04-24T14:35:58.639Z,7.30
2018-04-24T14:38:25.224Z,7.30
2018-04-24T14:40:51.815Z,8.30
2018-04-24T14:43:18.398Z,6.50
2018-04-24T14:45:44.995Z,8.60
2018-04-24T14:48:11.589Z,7.87
2018-04-24T14:50:38.180Z,7.70
2018-04-24T14:53:04.788Z,8.43
2018-04-24T14:55:31.373Z,7.03
2018-04-24T14:57:57.980Z,7.30
2018-04-24T15:00:24.559Z,7.10
2018-04-24T15:02:51.148Z,7.00
2018-04-24T15:05:17.736Z,7.07
2018-04-24T15:07:44.340Z,6.97
2018-04-24T15:10:10.933Z,7.90
2018-04-24T15:12:37.517Z,7.17
2018-04-24T15:15:04.116Z,7.70
2018-04-24T15:17:30.692Z,7.20
2018-04-24T15:19:57.293Z,8.10
2018-04-24T15:22:23.876Z,9.00
2018-04-24T15:24:50.464Z,8.33
2018-04-24T15:27:17.051Z,8.33
2018-04-24T15:29:43.635Z,9.00
2018-04-24T15:32:10.230Z,8.30
2018-04-24T15:34:36.822Z,8.03
2018-04-24T15:37:03.410Z,7.50
2018-04-24T15:39:30.075Z,8.10
2018-04-24T15:41:56.725Z,8.03
2018-04-24T15:44:23.289Z,7.13
2018-04-24T15:46:49.884Z,7.53
2018-04-24T15:49:16.472Z,6.60
2018-04-24T15:51:43.135Z,6.53
2018-04-24T15:54:09.731Z,6.73
2018-04-24T15:56:36.321Z,6.00
2018-04-24T15:59:02.948Z,5.93
2018-04-24T16:01:29.603Z,5.57
2018-04-24T16:03:56.185Z,6.90
2018-04-24T16:06:22.809Z,6.10
2018-04-24T16:08:49.424Z,6.47
2018-04-24T16:11:16.017Z,6.47
2018-04-24T16:13:42.768Z,6.50
2018-04-24T16:16:09.321Z,6.70
2018-04-24T16:18:35.892Z,6.90
2018-04-24T16:21:02.483Z,6.93
2018-04-24T16:23:29.071Z,5.77
2018-04-24T16:25:55.664Z,5.90
2018-04-24T16:28:22.245Z,6.40
2018-04-24T16:30:48.826Z,6.63
2018-04-24T16:33:15.415Z,5.87
2018-04-24T16:35:42.023Z,5.20
2018-04-24T16:38:08.590Z,6.30
2018-04-24T16:40:36.163Z,6.77
2018-04-24T16:43:02.800Z,6.40
2018-04-24T16:45:29.384Z,7.13
2018-04-24T16:47:56.032Z,6.90
2018-04-24T16:50:22.623Z,5.40
2018-04-24T16:52:49.204Z,6.07
2018-04-24T16:55:15.783Z,5.90
2018-04-24T16:57:42.372Z,5.53
2018-04-24T17:00:08.969Z,6.40
2018-04-24T17:02:35.556Z,5.87
2018-04-24T17:05:02.176Z,5.30
2018-04-24T17:07:28.749Z,5.07
2018-04-24T17:09:55.336Z,5.20
2018-04-24T17:12:22.016Z,6.33
2018-04-24T17:14:48.603Z,6.27
2018-04-24T17:17:15.200Z,6.53
2018-04-24T17:19:41.780Z,6.33
2018-04-24T17:22:08.364Z,5.63
2018-04-24T17:24:34.956Z,6.37
2018-04-24T17:27:01.536Z,5.60
2018-04-24T17:29:28.132Z,5.80
2018-04-24T17:31:54.716Z,5.43
2018-04-24T17:34:21.303Z,5.87
2018-04-24T17:36:47.892Z,5.50
2018-04-24T17:39:14.489Z,5.60
2018-04-24T17:41:41.068Z,4.90
2018-04-24T17:44:07.706Z,5.00
2018-04-24T17:46:34.278Z,5.67
2018-04-24T17:49:00.853Z,5.13
2018-04-24T17:51:27.444Z,5.03
2018-04-24T17:53:54.025Z,5.00
2018-04-24T17:56:20.616Z,4.37
2018-04-24T17:58:47.224Z,4.50
2018-04-24T18:01:13.799Z,5.57
2018-04-24T18:03:40.384Z,5.23
2018-04-24T18:06:06.959Z,4.57
2018-04-24T18:08:33.559Z,4.47
2018-04-24T18:11:00.127Z,4.80
2018-04-24T18:13:26.717Z,4.73
2018-04-24T18:15:53.304Z,4.67
2018-04-24T18:18:19.897Z,4.50
2018-04-24T18:20:46.480Z,4.60
2018-04-24T18:23:13.060Z,4.37
2018-04-24T18:25:39.661Z,4.40
2018-04-24T18:28:06.272Z,4.63
2018-04-24T18:30:32.835Z,5.33
2018-04-24T18:32:59.461Z,4.10
2018-04-24T18:35:26.064Z,4.07
2018-04-24T18:37:52.661Z,4.20
2018-04-24T18:40:19.266Z,3.90
2018-04-24T18:42:45.847Z,4.97
2018-04-24T18:45:12.424Z,6.10
2018-04-24T18:47:39.003Z,4.70
2018-04-24T18:50:05.589Z,4.30
2018-04-24T18:52:32.168Z,4.00
2018-04-24T18:54:58.760Z,4.20
2018-04-24T18:57:25.336Z,3.70
2018-04-24T18:59:51.923Z,3.80
2018-04-24T19:02:18.516Z,4.20
2018-04-24T19:04:45.104Z,4.00
2018-04-24T19:07:11.692Z,3.73
2018-04-24T19:09:38.272Z,3.97
2018-04-24T19:12:04.892Z,4.60
2018-04-24T19:14:31.468Z,4.23
2018-04-24T19:16:58.062Z,4.40
2018-04-24T19:19:26.422Z,4.13
2018-04-24T19:21:53.013Z,4.87
2018-04-24T19:24:25.264Z,5.50
2018-04-24T19:26:51.848Z,5.53
2018-04-24T19:29:18.419Z,5.33
2018-04-24T19:31:50.808Z,5.00
2018-04-24T19:34:17.392Z,4.40
2018-04-24T19:36:43.972Z,4.50
2018-04-24T19:39:16.354Z,4.33
2018-04-24T19:41:48.812Z,4.30
2018-04-24T19:44:15.415Z,3.80
2018-04-24T19:46:42.003Z,3.80
2018-04-24T19:49:14.287Z,4.33
2018-04-24T19:51:40.759Z,4.43
2018-04-24T19:54:07.340Z,4.97
2018-04-24T19:56:33.924Z,5.50
2018-04-24T19:59:00.508Z,5.10
2018-04-24T20:01:27.105Z,5.00
2018-04-24T20:03:53.677Z,4.20
2018-04-24T20:06:20.255Z,4.10
2018-04-24T20:08:46.848Z,4.00
2018-04-24T20:11:13.433Z,4.60
2018-04-24T20:13:40.041Z,4.33
2018-04-24T20:16:06.629Z,4.67
2018-04-24T20:18:33.208Z,4.50
2018-04-24T20:20:59.805Z,4.50
2018-04-24T20:23:26.401Z,4.70
2018-04-24T20:25:53.000Z,4.30
2018-04-24T20:28:19.575Z,4.13
2018-04-24T20:30:46.161Z,4.40
2018-04-24T20:33:12.763Z,4.40
2018-04-24T20:35:39.329Z,4.50
2018-04-24T20:38:06.185Z,4.37
2018-04-24T20:40:32.761Z,4.93
2018-04-24T20:42:59.340Z,4.50
2018-04-24T20:45:25.963Z,4.73
2018-04-24T20:47:52.547Z,5.10
2018-04-24T20:50:19.139Z,4.60
2018-04-24T20:52:45.719Z,5.17
2018-04-24T20:55:12.304Z,4.70
2018-04-24T20:57:38.900Z,5.10
2018-04-24T21:00:05.497Z,5.10
2018-04-24T21:02:32.129Z,5.30
2018-04-24T21:04:58.693Z,5.10
2018-04-24T21:07:25.263Z,5.77
2018-04-24T21:09:51.861Z,5.90
2018-04-24T21:12:18.440Z,5.20
2018-04-24T21:14:45.096Z,5.40
2018-04-24T21:17:11.687Z,5.47
2018-04-24T21:19:39.179Z,5.60
2018-04-24T21:22:05.748Z,6.27
2018-04-24T21:24:32.340Z,6.70
2018-04-24T21:26:58.940Z,6.70
2018-04-24T21:29:25.584Z,6.33
2018-04-24T21:31:52.124Z,6.23
2018-04-24T21:34:18.718Z,6.43
2018-04-24T21:36:45.295Z,6.00
2018-04-24T21:39:11.909Z,5.70
2018-04-24T21:41:38.520Z,5.97
2018-04-24T21:44:05.101Z,5.40
2018-04-24T21:46:31.692Z,5.63
2018-04-24T21:48:58.276Z,5.80
2018-04-24T21:51:24.850Z,6.17
2018-04-24T21:53:51.432Z,6.83
2018-04-24T21:56:18.028Z,6.53
2018-04-24T21:58:44.644Z,6.47
2018-04-24T22:01:11.319Z,6.80
2018-04-24T22:03:37.908Z,6.50
2018-04-24T22:06:04.468Z,6.60
2018-04-24T22:08:31.040Z,6.40
2018-04-24T22:10:57.628Z,5.87
2018-04-24T22:13:24.773Z,6.67
2018-04-24T22:15:51.446Z,6.20
2018-04-24T22:18:18.319Z,6.90
2018-04-24T22:20:44.939Z,6.50
2018-04-24T22:23:11.528Z,6.43
2018-04-24T22:25:38.113Z,6.97
2018-04-24T22:28:04.736Z,6.50
2018-04-24T22:30:31.324Z,6.73
2018-04-24T22:32:57.945Z,6.80
2018-04-24T22:35:24.496Z,6.80
2018-04-24T22:37:51.332Z,6.67
2018-04-24T22:40:17.925Z,7.27
2018-04-24T22:42:44.503Z,6.87
2018-04-24T22:45:11.100Z,7.33
2018-04-24T22:47:37.680Z,7.73
2018-04-24T22:50:04.276Z,7.70
2018-04-24T22:52:30.870Z,7.73
2018-04-24T22:54:57.436Z,7.57
2018-04-24T22:57:24.036Z,8.23
2018-04-24T22:59:50.620Z,7.83
2018-04-24T23:07:44.849Z,7.23
2018-04-24T23:10:11.177Z,7.10
2018-04-24T23:12:43.617Z,6.87
2018-04-24T23:15:16.274Z,6.90
2018-04-24T23:17:48.773Z,7.20
2018-04-24T23:20:16.005Z,6.97
2018-04-24T23:22:42.576Z,6.50
2018-04-24T23:25:09.141Z,6.63
2018-04-24T23:27:35.717Z,6.07
2018-04-24T23:30:02.317Z,6.40
2018-04-24T23:32:28.928Z,5.97
2018-04-24T23:34:55.514Z,6.20
2018-04-24T23:37:22.086Z,5.47
2018-04-24T23:39:48.652Z,5.53
2018-04-24T23:42:15.229Z,6.00
2018-04-24T23:44:41.790Z,5.60
2018-04-24T23:47:08.393Z,5.67
2018-04-24T23:49:34.945Z,5.53
2018-04-24T23:52:01.515Z,5.77
2018-04-24T23:54:28.082Z,5.20
2018-04-24T23:56:54.645Z,5.50
2018-04-24T23:59:21.214Z,5.83
